createdAt,value
2023-05-10T00:00:54.728Z,95237.00
2023-05-10T00:01:54.772Z,95237.00
2023-05-10T00:02:54.850Z,95237.00
2023-05-10T00:03:54.920Z,95237.00
2023-05-10T00:04:54.962Z,95239.00
2023-05-10T00:05:54.855Z,95237.00
2023-05-10T00:06:53.874Z,95239.00
2023-05-10T00:07:54.897Z,95239.00
2023-05-10T00:08:54.923Z,95239.00
2023-05-10T00:09:53.955Z,95241.00
2023-05-10T00:10:54.972Z,95241.00
2023-05-10T00:11:53.986Z,95243.00
2023-05-10T00:12:55.043Z,95243.00
2023-05-10T00:13:54.056Z,95243.00
2023-05-10T00:14:54.073Z,95243.00
2023-05-10T00:15:55.088Z,95241.00
2023-05-10T00:16:54.186Z,95239.00
2023-05-10T00:17:55.160Z,95239.00
2023-05-10T00:18:55.162Z,95241.00
2023-05-10T00:19:54.191Z,95239.00
2023-05-10T00:20:55.245Z,95241.00
2023-05-10T00:21:55.314Z,95241.00
2023-05-10T00:22:54.269Z,95241.00
2023-05-10T00:23:55.303Z,95241.00
2023-05-10T00:24:55.298Z,95241.00
2023-05-10T00:25:55.334Z,95239.00
2023-05-10T00:26:55.361Z,95241.00
2023-05-10T00:27:55.383Z,95241.00
2023-05-10T00:28:55.422Z,95241.00
2023-05-10T00:29:55.452Z,95243.00
2023-05-10T00:30:55.464Z,95241.00
2023-05-10T00:31:55.534Z,95239.00
2023-05-10T00:32:54.527Z,95241.00
2023-05-10T00:33:55.574Z,95241.00
2023-05-10T00:34:54.570Z,95243.00
2023-05-10T00:35:55.631Z,95247.00
2023-05-10T00:36:54.652Z,95247.00
2023-05-10T00:37:54.651Z,95247.00
2023-05-10T00:38:54.699Z,95249.00
2023-05-10T00:39:55.744Z,95251.00
2023-05-10T00:40:55.764Z,95253.00
2023-05-10T00:41:55.774Z,95249.00
2023-05-10T00:42:55.813Z,95245.00
2023-05-10T00:43:55.853Z,95247.00
2023-05-10T00:44:55.882Z,95255.00
2023-05-10T00:45:55.961Z,95249.00
2023-05-10T00:46:55.940Z,95251.00
2023-05-10T00:47:56.048Z,95251.00
2023-05-10T00:48:54.995Z,95253.00
2023-05-10T00:49:56.024Z,95251.00
2023-05-10T00:50:56.057Z,95253.00
2023-05-10T00:51:56.119Z,95253.00
2023-05-10T00:52:55.132Z,95255.00
2023-05-10T00:53:56.158Z,95253.00
2023-05-10T00:54:56.195Z,95255.00
2023-05-10T00:55:56.235Z,95257.00
2023-05-10T00:56:55.261Z,95259.00
2023-05-10T00:57:55.302Z,95257.00
2023-05-10T00:58:56.341Z,95259.00
2023-05-10T00:59:56.380Z,95259.00
2023-05-10T01:00:56.486Z,95259.00
2023-05-10T01:01:55.440Z,95259.00
2023-05-10T01:02:55.567Z,95257.00
2023-05-10T01:03:56.527Z,95261.00
2023-05-10T01:04:55.567Z,95257.00
2023-05-10T01:05:55.561Z,95259.00
2023-05-10T01:06:55.627Z,95255.00
2023-05-10T01:07:55.680Z,95257.00
2023-05-10T01:08:55.684Z,95255.00
2023-05-10T01:09:55.720Z,95257.00
2023-05-10T01:10:56.783Z,95257.00
2023-05-10T01:11:56.836Z,95257.00
2023-05-10T01:12:56.901Z,95257.00
2023-05-10T01:13:57.089Z,95259.00
2023-05-10T01:14:56.886Z,95257.00
2023-05-10T01:15:55.943Z,95259.00
2023-05-10T01:16:56.974Z,95259.00
2023-05-10T01:17:57.053Z,95255.00
2023-05-10T01:18:56.033Z,95261.00
2023-05-10T01:19:57.101Z,95257.00
2023-05-10T01:20:56.122Z,95259.00
2023-05-10T01:21:56.175Z,95259.00
2023-05-10T01:22:57.208Z,95261.00
2023-05-10T01:23:56.274Z,95261.00
2023-05-10T01:24:57.315Z,95259.00
2023-05-10T01:25:56.336Z,95259.00
2023-05-10T01:26:57.366Z,95259.00
2023-05-10T01:27:57.406Z,95259.00
2023-05-10T01:28:56.461Z,95259.00
2023-05-10T01:30:21.953Z,95259.00
2023-05-10T01:30:57.486Z,95257.00
2023-05-10T01:31:57.500Z,95257.00
2023-05-10T01:32:57.540Z,95255.00
2023-05-10T01:33:57.464Z,95257.00
2023-05-10T01:34:57.750Z,95259.00
2023-05-10T01:35:57.465Z,95257.00
2023-05-10T01:36:56.444Z,95257.00
2023-05-10T01:37:57.435Z,95255.00
2023-05-10T01:38:57.441Z,95255.00
2023-05-10T01:39:57.525Z,95255.00
2023-05-10T01:40:57.431Z,95257.00
2023-05-10T01:41:57.433Z,95257.00
2023-05-10T01:42:57.412Z,95257.00
2023-05-10T01:43:56.404Z,95259.00
2023-05-10T01:44:57.401Z,95257.00
2023-05-10T01:45:57.381Z,95259.00
2023-05-10T01:46:57.511Z,95259.00
2023-05-10T01:47:56.416Z,95259.00
2023-05-10T01:48:57.362Z,95257.00
2023-05-10T01:49:57.353Z,95257.00
2023-05-10T01:50:57.337Z,95257.00
2023-05-10T01:51:57.352Z,95257.00
2023-05-10T01:52:57.335Z,95259.00
2023-05-10T01:53:57.327Z,95261.00
2023-05-10T01:54:57.327Z,95261.00
2023-05-10T01:55:56.349Z,95262.00
2023-05-10T01:56:57.294Z,95261.00
2023-05-10T01:57:56.283Z,95262.00
2023-05-10T01:58:57.292Z,95264.00
2023-05-10T01:59:56.352Z,95264.00
2023-05-10T02:00:57.462Z,95266.00
2023-05-10T02:01:56.425Z,95266.00
2023-05-10T02:02:57.567Z,95266.00
2023-05-10T02:03:57.578Z,95264.00
2023-05-10T02:04:57.565Z,95264.00
2023-05-10T02:05:56.577Z,95264.00
2023-05-10T02:06:57.645Z,95266.00
2023-05-10T02:07:56.686Z,95266.00
2023-05-10T02:08:57.731Z,95266.00
2023-05-10T02:09:57.790Z,95268.00
2023-05-10T02:10:56.795Z,95268.00
2023-05-10T02:11:57.851Z,95270.00
2023-05-10T02:12:57.922Z,95268.00
2023-05-10T02:13:57.915Z,95274.00
2023-05-10T02:14:57.967Z,95272.00
2023-05-10T02:15:58.032Z,95274.00
2023-05-10T02:16:58.117Z,95276.00
2023-05-10T02:17:58.125Z,95276.00
2023-05-10T02:18:58.097Z,95276.00
2023-05-10T02:19:57.143Z,95276.00
2023-05-10T02:20:58.178Z,95276.00
2023-05-10T02:21:58.191Z,95278.00
2023-05-10T02:22:58.235Z,95276.00
2023-05-10T02:23:57.272Z,95276.00
2023-05-10T02:24:58.308Z,95278.00
2023-05-10T02:25:58.347Z,95278.00
2023-05-10T02:26:57.384Z,95278.00
2023-05-10T02:27:58.441Z,95278.00
2023-05-10T02:28:58.443Z,95280.00
2023-05-10T02:29:58.498Z,95280.00
2023-05-10T02:30:58.549Z,95278.00
2023-05-10T02:31:58.588Z,95280.00
2023-05-10T02:32:58.746Z,95282.00
2023-05-10T02:33:58.684Z,95280.00
2023-05-10T02:34:58.686Z,95280.00
2023-05-10T02:35:58.729Z,95280.00
2023-05-10T02:36:58.781Z,95282.00
2023-05-10T02:37:58.814Z,95280.00
2023-05-10T02:38:58.884Z,95280.00
2023-05-10T02:39:57.911Z,95280.00
2023-05-10T02:40:58.956Z,95280.00
2023-05-10T02:41:57.996Z,95278.00
2023-05-10T02:42:58.065Z,95276.00
2023-05-10T02:43:59.108Z,95276.00
2023-05-10T02:44:58.145Z,95278.00
2023-05-10T02:45:59.245Z,95276.00
2023-05-10T02:46:58.269Z,95278.00
2023-05-10T02:47:59.359Z,95274.00
2023-05-10T02:48:59.353Z,95276.00
2023-05-10T02:49:58.386Z,95276.00
2023-05-10T02:50:59.425Z,95274.00
2023-05-10T02:51:59.518Z,95274.00
2023-05-10T02:52:59.516Z,95274.00
2023-05-10T02:53:59.563Z,95274.00
2023-05-10T02:54:58.605Z,95276.00
2023-05-10T02:55:59.661Z,95274.00
2023-05-10T02:56:58.711Z,95276.00
2023-05-10T02:57:58.741Z,95274.00
2023-05-10T02:58:59.799Z,95276.00
2023-05-10T02:59:59.853Z,95276.00
2023-05-10T03:00:59.913Z,95278.00
2023-05-10T03:01:58.912Z,95278.00
2023-05-10T03:03:00.073Z,95274.00
2023-05-10T03:03:59.009Z,95278.00
2023-05-10T03:05:00.059Z,95278.00
2023-05-10T03:05:59.099Z,95276.00
2023-05-10T03:06:59.147Z,95276.00
2023-05-10T03:07:59.204Z,95278.00
2023-05-10T03:08:59.814Z,95278.00
2023-05-10T03:10:00.296Z,95280.00
2023-05-10T03:10:59.330Z,95278.00
2023-05-10T03:12:00.369Z,95278.00
2023-05-10T03:13:00.432Z,95274.00
2023-05-10T03:14:00.461Z,95276.00
2023-05-10T03:14:59.501Z,95278.00
2023-05-10T03:16:00.583Z,95278.00
2023-05-10T03:16:59.587Z,95272.00
2023-05-10T03:18:00.674Z,95276.00
2023-05-10T03:19:00.694Z,95270.00
2023-05-10T03:19:59.723Z,95272.00
2023-05-10T03:21:00.774Z,95272.00
2023-05-10T03:22:00.849Z,95274.00
2023-05-10T03:23:00.840Z,95276.00
2023-05-10T03:24:00.904Z,95276.00
2023-05-10T03:25:00.958Z,95278.00
2023-05-10T03:26:01.047Z,95278.00
2023-05-10T03:27:01.009Z,95280.00
2023-05-10T03:28:01.052Z,95278.00
2023-05-10T03:29:01.097Z,95280.00
2023-05-10T03:30:01.144Z,95282.00
2023-05-10T03:31:01.220Z,95284.00
2023-05-10T03:32:01.248Z,95284.00
2023-05-10T03:33:01.360Z,95282.00
2023-05-10T03:34:00.296Z,95284.00
2023-05-10T03:35:01.330Z,95284.00
2023-05-10T03:36:01.414Z,95284.00
2023-05-10T03:37:01.561Z,95284.00
2023-05-10T03:38:01.473Z,95282.00
2023-05-10T03:39:01.537Z,95286.00
2023-05-10T03:40:01.567Z,95286.00
2023-05-10T03:41:00.625Z,95286.00
2023-05-10T03:42:01.702Z,95286.00
2023-05-10T03:43:01.718Z,95288.00
2023-05-10T03:44:00.737Z,95288.00
2023-05-10T03:45:01.789Z,95286.00
2023-05-10T03:46:01.863Z,95288.00
2023-05-10T03:47:01.990Z,95290.00
2023-05-10T03:48:00.997Z,95290.00
2023-05-10T03:49:01.976Z,95290.00
2023-05-10T03:50:02.046Z,95286.00
2023-05-10T03:51:02.072Z,95290.00
2023-05-10T03:52:02.151Z,95290.00
2023-05-10T03:53:02.168Z,95290.00
2023-05-10T03:54:02.220Z,95290.00
2023-05-10T03:55:02.267Z,95290.00
2023-05-10T03:56:01.302Z,95292.00
2023-05-10T03:57:02.343Z,95294.00
2023-05-10T03:58:01.388Z,95296.00
2023-05-10T03:59:02.418Z,95298.00
2023-05-10T04:00:02.489Z,95298.00
2023-05-10T04:01:02.547Z,95300.00
2023-05-10T04:02:02.640Z,95300.00
2023-05-10T04:03:02.739Z,95302.00
2023-05-10T04:04:01.723Z,95302.00
2023-05-10T04:05:01.699Z,95302.00
2023-05-10T04:06:02.840Z,95302.00
2023-05-10T04:07:02.807Z,95300.00
2023-05-10T04:08:02.857Z,95302.00
2023-05-10T04:09:02.903Z,95300.00
2023-05-10T04:10:01.955Z,95302.00
2023-05-10T04:11:01.971Z,95298.00
2023-05-10T04:12:03.026Z,95302.00
2023-05-10T04:13:02.099Z,95302.00
2023-05-10T04:14:03.118Z,95300.00
2023-05-10T04:15:02.194Z,95302.00
2023-05-10T04:16:03.259Z,95300.00
2023-05-10T04:17:02.403Z,95300.00
2023-05-10T04:18:03.339Z,95300.00
2023-05-10T04:19:03.356Z,95304.00
2023-05-10T04:20:03.390Z,95306.00
2023-05-10T04:21:02.472Z,95304.00
2023-05-10T04:22:02.504Z,95304.00
2023-05-10T04:23:03.534Z,95306.00
2023-05-10T04:24:03.566Z,95308.00
2023-05-10T04:25:03.604Z,95309.00
2023-05-10T04:26:03.641Z,95311.00
2023-05-10T04:27:02.692Z,95311.00
2023-05-10T04:28:02.728Z,95313.00
2023-05-10T04:29:02.773Z,95315.00
2023-05-10T04:30:03.841Z,95313.00
2023-05-10T04:31:03.898Z,95317.00
2023-05-10T04:32:03.895Z,95317.00
2023-05-10T04:33:03.976Z,95319.00
2023-05-10T04:34:03.989Z,95319.00
2023-05-10T04:35:04.049Z,95321.00
2023-05-10T04:36:04.111Z,95317.00
2023-05-10T04:37:03.125Z,95315.00
2023-05-10T04:38:03.193Z,95317.00
2023-05-10T04:39:03.203Z,95315.00
2023-05-10T04:40:03.262Z,95313.00
2023-05-10T04:41:04.330Z,95315.00
2023-05-10T04:42:04.347Z,95317.00
2023-05-10T04:43:03.399Z,95317.00
2023-05-10T04:44:04.463Z,95319.00
2023-05-10T04:45:04.510Z,95321.00
2023-05-10T04:46:03.620Z,95323.00
2023-05-10T04:47:04.622Z,95323.00
2023-05-10T04:48:03.702Z,95325.00
2023-05-10T04:49:04.678Z,95323.00
2023-05-10T04:50:04.742Z,95325.00
2023-05-10T04:51:04.892Z,95323.00
2023-05-10T04:52:04.801Z,95321.00
2023-05-10T04:53:04.870Z,95319.00
2023-05-10T04:54:06.835Z,95319.00
2023-05-10T04:55:04.910Z,95317.00
2023-05-10T04:56:04.897Z,95321.00
2023-05-10T04:57:04.911Z,95321.00
2023-05-10T04:58:04.889Z,95323.00
2023-05-10T04:59:04.879Z,95323.00
2023-05-10T05:00:03.872Z,95323.00
2023-05-10T05:01:04.861Z,95325.00
2023-05-10T05:02:04.863Z,95327.00
2023-05-10T05:03:03.940Z,95329.00
2023-05-10T05:04:04.818Z,95329.00
2023-05-10T05:05:04.841Z,95331.00
2023-05-10T05:06:04.834Z,95331.00
2023-05-10T05:07:03.853Z,95335.00
2023-05-10T05:08:04.859Z,95335.00
2023-05-10T05:09:04.864Z,95333.00
2023-05-10T05:10:04.834Z,95335.00
2023-05-10T05:11:03.819Z,95335.00
2023-05-10T05:12:04.789Z,95335.00
2023-05-10T05:13:04.828Z,95335.00
2023-05-10T05:14:03.759Z,95339.00
2023-05-10T05:15:04.774Z,95339.00
2023-05-10T05:16:04.836Z,95339.00
2023-05-10T05:17:04.775Z,95341.00
2023-05-10T05:18:04.829Z,95343.00
2023-05-10T05:19:04.774Z,95341.00
2023-05-10T05:20:04.721Z,95341.00
2023-05-10T05:21:04.752Z,95339.00
2023-05-10T05:22:04.743Z,95343.00
2023-05-10T05:23:03.747Z,95339.00
2023-05-10T05:24:04.738Z,95339.00
2023-05-10T05:25:04.743Z,95341.00
2023-05-10T05:26:03.794Z,95341.00
2023-05-10T05:27:03.825Z,95343.00
2023-05-10T05:28:05.068Z,95345.00
2023-05-10T05:29:04.902Z,95345.00
2023-05-10T05:30:04.976Z,95345.00
2023-05-10T05:31:04.992Z,95347.00
2023-05-10T05:32:04.516Z,95349.00
2023-05-10T05:33:05.203Z,95347.00
2023-05-10T05:34:05.170Z,95345.00
2023-05-10T05:35:05.271Z,95343.00
2023-05-10T05:36:04.385Z,95341.00
2023-05-10T05:37:05.343Z,95343.00
2023-05-10T05:38:05.343Z,95343.00
2023-05-10T05:39:04.538Z,95345.00
2023-05-10T05:40:04.449Z,95345.00
2023-05-10T05:41:04.469Z,95347.00
2023-05-10T05:42:05.555Z,95345.00
2023-05-10T05:43:05.596Z,95347.00
2023-05-10T05:44:05.663Z,95347.00
2023-05-10T05:45:05.685Z,95351.00
2023-05-10T05:46:05.798Z,95353.00
2023-05-10T05:47:04.792Z,95351.00
2023-05-10T05:48:04.888Z,95355.00
2023-05-10T05:49:04.800Z,95356.00
2023-05-10T05:50:05.884Z,95358.00
2023-05-10T05:51:07.372Z,95355.00
2023-05-10T05:52:05.211Z,95356.00
2023-05-10T05:53:06.133Z,95356.00
2023-05-10T05:54:05.155Z,95356.00
2023-05-10T05:55:06.245Z,95358.00
2023-05-10T05:56:06.272Z,95356.00
2023-05-10T05:57:06.317Z,95353.00
2023-05-10T05:58:06.308Z,95353.00
2023-05-10T05:59:06.303Z,95353.00
2023-05-10T06:00:05.353Z,95353.00
2023-05-10T06:01:06.917Z,95353.00
2023-05-10T06:02:05.834Z,95356.00
2023-05-10T06:03:05.778Z,95355.00
2023-05-10T06:04:06.420Z,95360.00
2023-05-10T06:05:06.520Z,95360.00
2023-05-10T06:06:06.426Z,95356.00
2023-05-10T06:07:06.535Z,95358.00
2023-05-10T06:08:06.546Z,95360.00
2023-05-10T06:09:07.611Z,95362.00
2023-05-10T06:10:06.598Z,95360.00
2023-05-10T06:11:05.747Z,95360.00
2023-05-10T06:12:05.844Z,95360.00
2023-05-10T06:13:05.831Z,95360.00
2023-05-10T06:14:06.843Z,95360.00
2023-05-10T06:15:06.916Z,95358.00
2023-05-10T06:16:07.188Z,95360.00
2023-05-10T06:17:06.060Z,95362.00
2023-05-10T06:18:07.236Z,95364.00
2023-05-10T06:19:06.070Z,95362.00
2023-05-10T06:20:07.145Z,95362.00
2023-05-10T06:21:07.163Z,95366.00
2023-05-10T06:22:07.195Z,95366.00
2023-05-10T06:23:07.216Z,95372.00
2023-05-10T06:24:06.208Z,95372.00
2023-05-10T06:25:07.264Z,95374.00
2023-05-10T06:26:13.306Z,95374.00
2023-05-10T06:27:07.267Z,95374.00
2023-05-10T06:28:07.258Z,95374.00
2023-05-10T06:29:06.244Z,95376.00
2023-05-10T06:30:12.951Z,95376.00
2023-05-10T06:31:07.258Z,95376.00
2023-05-10T06:32:07.245Z,95376.00
2023-05-10T06:33:07.264Z,95376.00
2023-05-10T06:34:06.214Z,95382.00
2023-05-10T06:35:07.210Z,95380.00
2023-05-10T06:36:06.221Z,95382.00
2023-05-10T06:37:07.222Z,95382.00
2023-05-10T06:38:07.215Z,95384.00
2023-05-10T06:39:07.187Z,95382.00
2023-05-10T06:40:07.178Z,95382.00
2023-05-10T06:41:07.183Z,95386.00
2023-05-10T06:42:07.209Z,95382.00
2023-05-10T06:43:07.164Z,95386.00
2023-05-10T06:44:07.152Z,95382.00
2023-05-10T06:45:07.151Z,95382.00
2023-05-10T06:46:07.178Z,95382.00
2023-05-10T06:47:06.158Z,95384.00
2023-05-10T06:48:06.210Z,95386.00
2023-05-10T06:49:07.132Z,95388.00
2023-05-10T06:50:07.202Z,95388.00
2023-05-10T06:51:07.114Z,95386.00
2023-05-10T06:52:07.360Z,95386.00
2023-05-10T06:53:06.097Z,95388.00
2023-05-10T06:54:06.088Z,95386.00
2023-05-10T06:55:06.138Z,95386.00
2023-05-10T06:56:07.076Z,95390.00
2023-05-10T06:57:16.136Z,95384.00
2023-05-10T06:58:07.073Z,95386.00
2023-05-10T06:59:07.089Z,95388.00
2023-05-10T07:00:06.198Z,95390.00
2023-05-10T07:01:06.168Z,95384.00
2023-05-10T07:02:07.077Z,95384.00
2023-05-10T07:03:07.055Z,95386.00
2023-05-10T07:04:07.064Z,95386.00
2023-05-10T07:05:07.007Z,95386.00
2023-05-10T07:06:07.182Z,95384.00
2023-05-10T07:07:05.995Z,95384.00
2023-05-10T07:08:06.981Z,95384.00
2023-05-10T07:09:06.974Z,95388.00
2023-05-10T07:10:05.985Z,95388.00
2023-05-10T07:11:05.969Z,95390.00
2023-05-10T07:12:07.264Z,95390.00
2023-05-10T07:13:07.021Z,95390.00
2023-05-10T07:14:06.017Z,95388.00
2023-05-10T07:15:06.951Z,95388.00
2023-05-10T07:16:05.982Z,95388.00
2023-05-10T07:17:05.949Z,95390.00
2023-05-10T07:18:07.132Z,95392.00
2023-05-10T07:19:05.906Z,95388.00
2023-05-10T07:20:06.918Z,95394.00
2023-05-10T07:21:06.011Z,95392.00
2023-05-10T07:22:06.039Z,95396.00
2023-05-10T07:23:07.081Z,95396.00
2023-05-10T07:24:07.124Z,95396.00
2023-05-10T07:25:06.192Z,95396.00
2023-05-10T07:26:07.240Z,95398.00
2023-05-10T07:27:06.311Z,95396.00
2023-05-10T07:28:06.384Z,95396.00
2023-05-10T07:29:06.612Z,95398.00
2023-05-10T07:30:07.499Z,95398.00
2023-05-10T07:31:07.561Z,95400.00
2023-05-10T07:32:07.672Z,95400.00
2023-05-10T07:33:07.699Z,95400.00
2023-05-10T07:34:07.745Z,95396.00
2023-05-10T07:35:07.864Z,95394.00
2023-05-10T07:36:06.859Z,95394.00
2023-05-10T07:37:06.925Z,95394.00
2023-05-10T07:38:07.987Z,95394.00
2023-05-10T07:39:08.029Z,95394.00
2023-05-10T07:40:08.124Z,95392.00
2023-05-10T07:41:07.171Z,95392.00
2023-05-10T07:42:07.215Z,95392.00
2023-05-10T07:43:08.278Z,95392.00
2023-05-10T07:44:07.342Z,95394.00
2023-05-10T07:45:08.431Z,95396.00
2023-05-10T07:46:08.545Z,95394.00
2023-05-10T07:47:08.894Z,95398.00
2023-05-10T07:48:07.629Z,95396.00
2023-05-10T07:49:08.647Z,95394.00
2023-05-10T07:50:07.708Z,95402.00
2023-05-10T07:51:07.766Z,95400.00
2023-05-10T07:52:08.913Z,95409.00
2023-05-10T07:53:07.845Z,95409.00
2023-05-10T07:54:07.913Z,95411.00
2023-05-10T07:55:07.990Z,95411.00
2023-05-10T07:56:09.100Z,95413.00
2023-05-10T07:57:08.104Z,95415.00
2023-05-10T07:58:08.199Z,95415.00
2023-05-10T07:59:11.345Z,95419.00
2023-05-10T08:00:08.225Z,95421.00
2023-05-10T08:01:08.214Z,95423.00
2023-05-10T08:02:08.273Z,95421.00
2023-05-10T08:03:09.332Z,95423.00
2023-05-10T08:04:09.270Z,95421.00
2023-05-10T08:05:08.170Z,95425.00
2023-05-10T08:06:09.185Z,95427.00
2023-05-10T08:07:08.172Z,95427.00
2023-05-10T08:08:09.209Z,95427.00
2023-05-10T08:09:09.179Z,95429.00
2023-05-10T08:10:08.142Z,95429.00
2023-05-10T08:11:09.144Z,95431.00
2023-05-10T08:12:09.147Z,95435.00
2023-05-10T08:13:08.127Z,95441.00
2023-05-10T08:14:08.170Z,95443.00
2023-05-10T08:15:09.105Z,95445.00
2023-05-10T08:16:09.123Z,95445.00
2023-05-10T08:17:08.210Z,95445.00
2023-05-10T08:18:08.204Z,95443.00
2023-05-10T08:19:08.257Z,95447.00
2023-05-10T08:20:09.261Z,95449.00
2023-05-10T08:21:08.270Z,95449.00
2023-05-10T08:22:09.325Z,95453.00
2023-05-10T08:23:09.357Z,95453.00
2023-05-10T08:24:08.417Z,95455.00
2023-05-10T08:25:09.490Z,95455.00
2023-05-10T08:26:09.474Z,95453.00
2023-05-10T08:27:09.561Z,95455.00
2023-05-10T08:28:10.051Z,95457.00
2023-05-10T08:29:08.556Z,95459.00
2023-05-10T08:30:09.564Z,95457.00
2023-05-10T08:31:09.585Z,95455.00
2023-05-10T08:32:09.542Z,95459.00
2023-05-10T08:33:09.596Z,95457.00
2023-05-10T08:34:08.568Z,95459.00
2023-05-10T08:35:08.523Z,95459.00
2023-05-10T08:36:08.510Z,95461.00
2023-05-10T08:37:09.496Z,95459.00
2023-05-10T08:38:09.514Z,95461.00
2023-05-10T08:39:22.975Z,95457.00
2023-05-10T08:40:09.521Z,95461.00
2023-05-10T08:41:08.540Z,95464.00
2023-05-10T08:42:09.509Z,95463.00
2023-05-10T08:43:08.894Z,95464.00
2023-05-10T08:44:08.462Z,95466.00
2023-05-10T08:45:09.466Z,95461.00
2023-05-10T08:46:09.524Z,95459.00
2023-05-10T08:47:08.665Z,95463.00
2023-05-10T08:48:09.550Z,95464.00
2023-05-10T08:49:08.437Z,95461.00
2023-05-10T08:50:09.486Z,95461.00
2023-05-10T08:51:08.421Z,95459.00
2023-05-10T08:52:09.409Z,95459.00
2023-05-10T08:53:09.933Z,95457.00
2023-05-10T08:54:09.389Z,95461.00
2023-05-10T08:55:09.394Z,95459.00
2023-05-10T08:56:09.388Z,95463.00
2023-05-10T08:57:08.367Z,95461.00
2023-05-10T08:58:09.412Z,95463.00
2023-05-10T08:59:08.360Z,95463.00
2023-05-10T09:00:09.363Z,95466.00
2023-05-10T09:01:09.541Z,95466.00
2023-05-10T09:02:09.349Z,95466.00
2023-05-10T09:03:08.456Z,95472.00
2023-05-10T09:04:09.469Z,95470.00
2023-05-10T09:05:09.361Z,95474.00
2023-05-10T09:06:08.343Z,95474.00
2023-05-10T09:07:09.312Z,95474.00
2023-05-10T09:08:08.345Z,95472.00
2023-05-10T09:09:09.323Z,95480.00
2023-05-10T09:10:08.293Z,95482.00
2023-05-10T09:11:08.305Z,95480.00
2023-05-10T09:12:08.291Z,95480.00
2023-05-10T09:13:09.289Z,95480.00
2023-05-10T09:14:09.277Z,95484.00
2023-05-10T09:15:09.312Z,95482.00
2023-05-10T09:16:20.575Z,95480.00
2023-05-10T09:17:09.386Z,95482.00
2023-05-10T09:18:09.561Z,95482.00
2023-05-10T09:19:09.466Z,95480.00
2023-05-10T09:20:09.297Z,95482.00
2023-05-10T09:21:08.289Z,95484.00
2023-05-10T09:22:09.303Z,95480.00
2023-05-10T09:23:09.269Z,95482.00
2023-05-10T09:24:09.278Z,95480.00
2023-05-10T09:25:08.264Z,95480.00
2023-05-10T09:26:08.268Z,95478.00
2023-05-10T09:27:09.247Z,95480.00
2023-05-10T09:28:09.263Z,95480.00
2023-05-10T09:29:09.253Z,95482.00
2023-05-10T09:30:09.242Z,95478.00
2023-05-10T09:31:09.267Z,95484.00
2023-05-10T09:32:09.243Z,95478.00
2023-05-10T09:33:08.207Z,95478.00
2023-05-10T09:34:09.200Z,95476.00
2023-05-10T09:35:09.223Z,95474.00
2023-05-10T09:36:08.188Z,95474.00
2023-05-10T09:37:08.221Z,95474.00
2023-05-10T09:38:09.214Z,95476.00
2023-05-10T09:39:09.179Z,95472.00
2023-05-10T09:40:08.176Z,95474.00
2023-05-10T09:41:09.173Z,95474.00
2023-05-10T09:42:09.166Z,95474.00
2023-05-10T09:43:09.141Z,95476.00
2023-05-10T09:44:09.134Z,95482.00
2023-05-10T09:45:08.146Z,95480.00
2023-05-10T09:46:08.207Z,95480.00
2023-05-10T09:47:09.122Z,95478.00
2023-05-10T09:48:08.573Z,95480.00
2023-05-10T09:49:09.105Z,95476.00
2023-05-10T09:50:09.115Z,95478.00
2023-05-10T09:51:08.079Z,95478.00
2023-05-10T09:52:09.191Z,95472.00
2023-05-10T09:53:09.421Z,95476.00
2023-05-10T09:54:08.175Z,95470.00
2023-05-10T09:55:09.202Z,95472.00
2023-05-10T09:56:09.249Z,95470.00
2023-05-10T09:57:09.298Z,95472.00
2023-05-10T09:58:08.311Z,95468.00
2023-05-10T09:59:09.308Z,95468.00
2023-05-10T10:00:09.327Z,95466.00
2023-05-10T10:01:08.387Z,95470.00
2023-05-10T10:02:08.424Z,95470.00
2023-05-10T10:03:08.589Z,95468.00
2023-05-10T10:04:09.557Z,95470.00
2023-05-10T10:05:09.629Z,95466.00
2023-05-10T10:06:15.970Z,95466.00
2023-05-10T10:07:09.641Z,95464.00
2023-05-10T10:08:09.640Z,95464.00
2023-05-10T10:09:08.696Z,95464.00
2023-05-10T10:10:08.658Z,95463.00
2023-05-10T10:11:09.598Z,95463.00
2023-05-10T10:12:08.610Z,95463.00
2023-05-10T10:13:09.648Z,95464.00
2023-05-10T10:14:08.579Z,95464.00
2023-05-10T10:15:09.584Z,95463.00
2023-05-10T10:16:08.611Z,95463.00
2023-05-10T10:17:09.586Z,95463.00
2023-05-10T10:18:09.699Z,95463.00
2023-05-10T10:19:09.566Z,95464.00
2023-05-10T10:20:11.979Z,95464.00
2023-05-10T10:21:09.576Z,95466.00
2023-05-10T10:22:08.539Z,95464.00
2023-05-10T10:23:08.523Z,95466.00
2023-05-10T10:24:09.522Z,95468.00
2023-05-10T10:25:08.513Z,95466.00
2023-05-10T10:26:08.574Z,95468.00
2023-05-10T10:27:08.505Z,95468.00
2023-05-10T10:28:09.495Z,95466.00
2023-05-10T10:29:08.496Z,95468.00
2023-05-10T10:30:08.485Z,95466.00
2023-05-10T10:31:09.526Z,95470.00
2023-05-10T10:32:09.487Z,95470.00
2023-05-10T10:33:16.838Z,95474.00
2023-05-10T10:34:09.486Z,95470.00
2023-05-10T10:35:08.469Z,95470.00
2023-05-10T10:36:08.436Z,95472.00
2023-05-10T10:37:09.438Z,95472.00
2023-05-10T10:38:09.431Z,95472.00
2023-05-10T10:39:08.419Z,95470.00
2023-05-10T10:40:09.428Z,95470.00
2023-05-10T10:41:09.407Z,95468.00
2023-05-10T10:42:09.437Z,95468.00
2023-05-10T10:43:08.411Z,95470.00
2023-05-10T10:44:09.481Z,95464.00
2023-05-10T10:45:09.389Z,95464.00
2023-05-10T10:46:09.378Z,95464.00
2023-05-10T10:47:09.604Z,95468.00
2023-05-10T10:48:08.522Z,95468.00
2023-05-10T10:49:09.384Z,95468.00
2023-05-10T10:50:09.360Z,95466.00
2023-05-10T10:51:10.846Z,95470.00
2023-05-10T10:52:09.344Z,95472.00
2023-05-10T10:53:08.379Z,95472.00
2023-05-10T10:54:09.334Z,95470.00
2023-05-10T10:55:08.331Z,95468.00
2023-05-10T10:56:09.336Z,95470.00
2023-05-10T10:57:09.320Z,95470.00
2023-05-10T10:58:09.336Z,95470.00
2023-05-10T10:59:09.319Z,95464.00
2023-05-10T11:00:09.293Z,95468.00
2023-05-10T11:01:09.320Z,95466.00
2023-05-10T11:02:09.281Z,95466.00
2023-05-10T11:03:08.468Z,95466.00
2023-05-10T11:04:08.309Z,95464.00
2023-05-10T11:05:09.258Z,95461.00
2023-05-10T11:06:09.252Z,95463.00
2023-05-10T11:07:08.232Z,95464.00
2023-05-10T11:08:09.252Z,95468.00
2023-05-10T11:09:09.235Z,95466.00
2023-05-10T11:10:08.216Z,95470.00
2023-05-10T11:11:09.238Z,95472.00
2023-05-10T11:12:08.226Z,95470.00
2023-05-10T11:13:08.201Z,95472.00
2023-05-10T11:14:09.271Z,95472.00
2023-05-10T11:15:08.260Z,95472.00
2023-05-10T11:16:09.350Z,95468.00
2023-05-10T11:17:09.413Z,95472.00
2023-05-10T11:18:09.425Z,95474.00
2023-05-10T11:19:09.541Z,95472.00
2023-05-10T11:20:09.405Z,95476.00
2023-05-10T11:21:08.421Z,95476.00
2023-05-10T11:22:09.471Z,95476.00
2023-05-10T11:23:09.455Z,95474.00
2023-05-10T11:24:09.529Z,95478.00
2023-05-10T11:25:08.472Z,95478.00
2023-05-10T11:26:09.502Z,95478.00
2023-05-10T11:27:09.491Z,95478.00
2023-05-10T11:28:09.494Z,95482.00
2023-05-10T11:29:09.548Z,95480.00
2023-05-10T11:30:09.562Z,95482.00
2023-05-10T11:31:09.615Z,95482.00
2023-05-10T11:32:09.572Z,95482.00
2023-05-10T11:33:08.614Z,95478.00
2023-05-10T11:34:09.612Z,95478.00
2023-05-10T11:35:09.606Z,95480.00
2023-05-10T11:36:08.626Z,95480.00
2023-05-10T11:37:08.641Z,95480.00
2023-05-10T11:38:09.685Z,95478.00
2023-05-10T11:39:08.975Z,95480.00
2023-05-10T11:40:09.738Z,95480.00
2023-05-10T11:41:08.749Z,95482.00
2023-05-10T11:42:08.777Z,95482.00
2023-05-10T11:43:08.795Z,95480.00
2023-05-10T11:44:09.867Z,95480.00
2023-05-10T11:45:09.888Z,95482.00